Time;durP1;ratioP1;P1;durP2;ratioP2;P2;SDS_P1;SDS_P2;PMS_P1;PMS_P2;Temp;Humidity;BMP_temperature;BMP_pressure;BME280_temperature;BME280_humidity;BME280_pressure;Samples;Min_cycle;Max_cycle;Signal;HPM_P1;HPM_P2
2023/09/22 00:09:13;;;;;;;11.40;8.30;;;;;;;18.17;65.03;97553.56;435187;1256;107894;-43
2023/09/22 00:19:17;;;;;;;11.00;6.40;;;;;;;17.92;64.94;97547.95;435139;1256;98037;-41
2023/09/22 00:29:24;;;;;;;11.70;7.00;;;;;;;17.89;65.36;97540.07;434890;1256;361803;-41
2023/09/22 00:39:32;;;;;;;8.70;7.00;;;;;;;17.85;65.74;97527.96;435145;1253;108239;-41
2023/09/22 00:49:37;;;;;;;13.50;7.50;;;;;;;17.88;65.71;97526.98;435185;1256;99232;-42
2023/09/22 00:59:45;;;;;;;9.80;5.00;;;;;;;17.92;65.98;97517.19;435158;1256;106977;-42
2023/09/22 01:09:50;;;;;;;7.50;5.80;;;;;;;18.03;66.12;97503.15;435075;1256;98038;-43
2023/09/22 01:19:57;;;;;;;10.20;6.40;;;;;;;18.08;66.31;97502.58;435197;1256;111820;-43
2023/09/22 01:50:19;;;;;;;12.60;6.80;;;;;;;18.02;66.14;97488.10;435913;1256;108720;-39
2023/09/22 02:00:27;;;;;;;7.10;3.90;;;;;;;18.01;66.27;97470.25;435276;1256;99237;-42
2023/09/22 02:10:34;;;;;;;13.30;7.10;;;;;;;18.09;66.58;97457.20;435219;1255;112807;-41
2023/09/22 02:20:42;;;;;;;15.10;5.30;;;;;;;18.14;66.47;97446.30;435169;1265;107888;-42
2023/09/22 02:30:49;;;;;;;10.10;4.20;;;;;;;18.20;66.53;97444.70;435238;1264;99553;-42
2023/09/22 02:40:56;;;;;;;6.70;4.80;;;;;;;18.28;66.34;97460.98;435138;1260;109897;-42
2023/09/22 02:51:06;;;;;;;8.00;5.40;;;;;;;18.14;66.40;97461.77;435016;1256;99009;-42
2023/09/22 03:01:14;;;;;;;9.10;6.00;;;;;;;17.91;66.53;97458.50;435000;1264;111638;-41
2023/09/22 03:11:21;;;;;;;11.30;6.60;;;;;;;17.61;66.57;97461.87;435015;1264;108124;-42
2023/09/22 03:21:29;;;;;;;7.10;4.90;;;;;;;17.43;66.76;97463.92;435084;1267;98824;-43
2023/09/22 03:31:38;;;;;;;10.70;4.80;;;;;;;17.19;67.03;97467.41;435014;1257;108942;-42
2023/09/22 03:41:45;;;;;;;9.90;5.90;;;;;;;17.23;67.69;97477.91;435282;1258;99275;-40
2023/09/22 03:51:52;;;;;;;13.20;7.40;;;;;;;16.78;67.82;97478.88;435035;1264;113484;-43
2023/09/22 04:12:05;;;;;;;14.30;5.30;;;;;;;16.41;68.50;97470.45;435102;1256;99234;-42
2023/09/22 04:22:16;;;;;;;12.50;7.20;;;;;;;16.45;69.08;97469.95;435289;1257;108108;-43
2023/09/22 04:32:23;;;;;;;13.00;6.20;;;;;;;16.40;69.45;97468.40;435192;1256;98650;-42
2023/09/22 04:42:31;;;;;;;13.70;5.60;;;;;;;16.20;69.40;97467.88;435259;1258;110884;-42
2023/09/22 04:52:38;;;;;;;12.30;6.70;;;;;;;16.32;69.96;97466.41;435453;1254;108534;-42
2023/09/22 05:02:46;;;;;;;15.30;6.70;;;;;;;16.52;70.28;97465.92;435093;1257;99240;-41
2023/09/22 05:22:58;;;;;;;14.60;7.70;;;;;;;16.73;70.88;97478.29;435449;1251;98830;-42
2023/09/22 05:53:16;;;;;;;14.20;6.60;;;;;;;18.74;71.49;97459.55;435260;1254;98482;-43
2023/09/22 06:03:23;;;;;;;27.70;7.30;;;;;;;20.35;70.19;97458.02;435249;1255;107630;-42
2023/09/22 06:13:30;;;;;;;10.60;6.90;;;;;;;21.18;68.39;97471.05;435307;1257;97992;-42
2023/09/22 06:23:36;;;;;;;13.50;6.70;;;;;;;21.54;67.09;97483.77;435729;1252;111118;-42
2023/09/22 06:33:45;;;;;;;12.20;6.60;;;;;;;22.11;65.74;97485.81;435152;1257;108739;-42
2023/09/22 06:43:53;;;;;;;12.00;6.10;;;;;;;22.62;64.13;97492.16;435325;1252;99266;-41
2023/09/22 06:54:03;;;;;;;11.60;5.70;;;;;;;22.89;63.11;97488.18;435193;1257;108384;-41
2023/09/22 07:04:12;;;;;;;11.50;5.40;;;;;;;23.05;62.09;97487.98;435174;1255;99247;-42
2023/09/22 07:24:25;;;;;;;10.10;3.70;;;;;;;23.46;61.00;97510.49;435152;1251;107747;-41
2023/09/22 07:34:31;;;;;;;16.80;4.50;;;;;;;23.44;59.87;97508.84;435245;1256;97972;-41
2023/09/22 07:44:38;;;;;;;12.10;3.60;;;;;;;23.48;58.88;97510.17;435254;1258;108718;-43
2023/09/22 08:04:51;;;;;;;10.90;3.30;;;;;;;23.47;58.36;97517.11;435205;1256;111882;-43
2023/09/22 08:14:57;;;;;;;8.80;2.90;;;;;;;23.25;58.49;97521.83;435275;1252;108911;-42
2023/09/22 08:25:04;;;;;;;8.30;4.20;;;;;;;23.58;58.55;97523.20;435254;1251;99314;-41
2023/09/22 08:35:11;;;;;;;10.80;3.30;;;;;;;23.46;57.99;97528.70;435244;1256;108580;-43
2023/09/22 08:45:18;;;;;;;19.30;3.90;;;;;;;23.37;57.48;97521.16;435332;1253;99244;-42
2023/09/22 08:55:23;;;;;;;13.20;3.20;;;;;;;23.28;58.15;97498.25;435348;1256;111931;-42
2023/09/22 09:05:30;;;;;;;5.20;3.70;;;;;;;24.21;57.77;97499.27;435322;1256;108751;-43
2023/09/22 09:25:45;;;;;;;13.60;3.60;;;;;;;24.81;55.81;97504.98;435321;1256;107735;-41
2023/09/22 09:35:55;;;;;;;5.30;2.50;;;;;;;24.73;55.26;97510.98;435298;1251;99260;-40
2023/09/22 09:46:06;;;;;;;10.40;3.00;;;;;;;24.97;54.69;97510.22;435310;1251;111398;-41
2023/09/22 10:06:24;;;;;;;8.80;2.70;;;;;;;24.59;54.01;97530.15;435202;1253;99252;-41
2023/09/22 10:16:43;;;;;;;14.30;3.20;;;;;;;24.26;54.47;97528.98;435389;1256;109205;-44
2023/09/22 10:27:13;;;;;;;9.10;2.70;;;;;;;23.91;55.22;97534.48;435331;1252;99327;-42
2023/09/22 10:37:22;;;;;;;9.00;3.10;;;;;;;23.63;55.70;97542.02;435172;1253;110503;-41
2023/09/22 10:57:44;;;;;;;8.50;3.00;;;;;;;23.61;56.90;97554.45;435270;1251;98814;-42
2023/09/22 11:28:04;;;;;;;9.00;3.80;;;;;;;24.98;55.97;97555.15;435412;1253;112140;-41
2023/09/22 11:48:32;;;;;;;11.20;3.20;;;;;;;25.12;56.05;97552.70;435144;1251;99266;-41
2023/09/22 12:08:44;;;;;;;8.40;3.40;;;;;;;25.11;55.57;97558.73;435254;1256;99298;-42
2023/09/22 12:18:52;;;;;;;6.40;2.80;;;;;;;25.17;55.71;97555.40;435319;1253;111327;-41
2023/09/22 12:49:11;;;;;;;9.40;2.90;;;;;;;25.49;55.45;97564.91;435256;1256;109381;-43
2023/09/22 12:59:16;;;;;;;11.90;3.70;;;;;;;25.50;55.31;97564.10;435258;1256;99289;-41
2023/09/22 13:09:24;;;;;;;8.20;3.80;;;;;;;25.54;54.78;97560.72;435189;1256;112902;-41
2023/09/22 13:39:45;;;;;;;27.00;4.90;;;;;;;25.24;55.81;97564.21;435302;1256;108351;-42
2023/09/22 14:00:00;;;;;;;45.40;5.50;;;;;;;25.21;56.32;97584.54;435208;1251;111781;-41
2023/09/22 14:10:09;;;;;;;13.10;3.80;;;;;;;25.28;56.38;97587.79;435296;1251;107642;-41
2023/09/22 14:20:14;;;;;;;49.20;5.70;;;;;;;25.20;56.49;97584.88;435263;1256;99857;-40
2023/09/22 14:40:28;;;;;;;10.30;3.20;;;;;;;24.63;57.21;97597.20;435186;1256;98719;-42
2023/09/22 14:50:35;;;;;;;9.00;3.40;;;;;;;24.29;57.40;97610.34;435150;1254;111075;-43
2023/09/22 15:10:50;;;;;;;8.40;3.20;;;;;;;24.05;58.26;97606.16;435234;1256;99148;-40
2023/09/22 15:20:59;;;;;;;11.30;4.40;;;;;;;23.89;58.28;97609.50;435391;1253;109746;-42
2023/09/22 15:31:06;;;;;;;10.30;3.60;;;;;;;23.75;58.84;97618.71;435307;1256;99172;-42
2023/09/22 15:41:14;;;;;;;12.90;3.40;;;;;;;23.55;59.03;97615.70;435132;1255;112320;-42
2023/09/22 15:51:19;;;;;;;7.60;3.10;;;;;;;23.30;59.42;97628.77;435282;1251;107690;-41
2023/09/22 16:01:26;;;;;;;9.70;4.00;;;;;;;23.07;60.25;97641.50;435214;1253;99230;-42
2023/09/22 16:11:31;;;;;;;;;;;;;;;22.86;60.88;97647.44;435702;1256;107979;-40
2023/09/22 16:31:40;;;;;;;14.50;4.30;;;;;;;22.47;62.40;97650.69;435215;1253;111754;-41
2023/09/22 16:51:52;;;;;;;17.10;5.70;;;;;;;21.83;63.29;97657.29;435137;1253;99320;-42
2023/09/22 17:01:59;;;;;;;16.30;5.10;;;;;;;21.60;64.01;97659.23;435072;1256;110049;-41
2023/09/22 17:12:06;;;;;;;19.60;6.10;;;;;;;21.52;64.85;97660.86;435211;1256;99266;-42
2023/09/22 17:22:12;;;;;;;17.00;7.10;;;;;;;21.32;65.38;97660.88;435297;1253;111045;-43
2023/09/22 17:32:20;;;;;;;26.70;7.00;;;;;;;21.19;65.91;97653.72;435317;1254;107570;-42
2023/09/22 17:42:29;;;;;;;17.90;7.50;;;;;;;21.14;66.39;97658.36;435133;1253;99301;-41
2023/09/22 17:52:37;;;;;;;20.40;7.50;;;;;;;21.08;67.01;97660.75;435085;1253;107832;-40
2023/09/22 18:02:46;;;;;;;19.40;8.50;;;;;;;21.04;67.56;97662.62;435170;1264;97995;-42
2023/09/22 18:12:54;;;;;;;25.90;9.00;;;;;;;20.91;67.74;97675.38;436009;1256;110611;-40
2023/09/22 18:23:00;;;;;;;23.40;10.60;;;;;;;20.76;68.09;97688.17;435069;1256;109319;-42
2023/09/22 18:33:09;;;;;;;19.70;11.50;;;;;;;20.77;68.59;97689.23;435275;1253;99223;-42
2023/09/22 18:43:18;;;;;;;17.70;10.50;;;;;;;20.82;68.91;97694.14;435008;1256;108814;-41
2023/09/22 18:53:24;;;;;;;25.10;12.00;;;;;;;20.81;68.91;97703.83;435232;1253;99246;-42
2023/09/22 19:13:38;;;;;;;20.10;11.10;;;;;;;20.32;69.91;97732.55;435105;1256;108869;-41
2023/09/22 19:23:46;;;;;;;22.80;11.20;;;;;;;19.87;71.37;97737.55;435025;1256;99250;-42
2023/09/22 19:43:58;;;;;;;17.00;9.40;;;;;;;19.44;73.62;97742.80;435116;1256;99250;-42
2023/09/22 19:54:04;;;;;;;21.90;10.80;;;;;;;19.37;74.14;97723.60;435043;1256;112375;-42
2023/09/22 20:14:18;;;;;;;9.00;5.60;;;;;;;19.01;75.75;97715.92;435139;1254;99841;-42
2023/09/22 20:34:30;;;;;;;6.70;4.70;;;;;;;19.27;76.26;97702.11;435091;1256;99253;-43
2023/09/22 20:44:37;;;;;;;12.80;5.10;;;;;;;18.97;76.59;97696.88;435112;1256;110183;-43
2023/09/22 21:14:55;;;;;;;13.10;7.00;;;;;;;19.00;77.48;97668.79;435091;1256;107882;-44
2023/09/22 21:25:01;;;;;;;11.80;5.80;;;;;;;18.74;78.18;97664.95;435070;1256;99148;-41
2023/09/22 21:35:08;;;;;;;10.90;5.80;;;;;;;18.63;78.64;97659.35;435164;1256;111215;-43
2023/09/22 21:45:16;;;;;;;7.60;5.30;;;;;;;18.57;79.18;97658.90;435127;1256;109220;-42
2023/09/22 21:55:20;;;;;;;9.50;5.80;;;;;;;18.61;79.59;97664.05;435090;1256;99243;-41
2023/09/22 22:05:28;;;;;;;5.90;5.20;;;;;;;18.82;79.97;97673.91;435042;1254;106774;-42
2023/09/22 22:15:35;;;;;;;7.50;5.20;;;;;;;18.97;79.95;97677.00;434990;1266;99327;-41
2023/09/22 22:25:45;;;;;;;9.60;6.60;;;;;;;18.93;80.04;97681.55;434997;1257;112904;-43
2023/09/22 22:35:53;;;;;;;8.50;6.60;;;;;;;18.90;80.31;97695.23;435947;1256;107779;-41
2023/09/22 22:56:07;;;;;;;13.10;8.20;;;;;;;18.84;80.51;97684.70;435150;1266;107542;-41
2023/09/22 23:06:16;;;;;;;12.50;7.90;;;;;;;18.78;80.73;97689.80;435054;1267;99321;-42
2023/09/22 23:16:25;;;;;;;14.40;7.00;;;;;;;18.78;80.88;97684.52;435077;1266;110989;-42
2023/09/22 23:26:33;;;;;;;12.70;7.10;;;;;;;18.76;80.83;97711.88;434987;1266;107924;-42
2023/09/22 23:46:47;;;;;;;18.70;13.30;;;;;;;18.44;81.29;97745.84;435136;1255;107646;-40
2023/09/22 23:56:54;;;;;;;18.00;15.00;;;;;;;18.28;81.41;97766.85;435181;1257;99221;-42
